Time;durP1;ratioP1;P1;durP2;ratioP2;P2;SDS_P1;SDS_P2;PMS_P1;PMS_P2;Temp;Humidity;BMP_temperature;BMP_pressure;BME280_temperature;BME280_humidity;BME280_pressure;Samples;Min_cycle;Max_cycle;Signal;HPM_P1;HPM_P2
2021/04/06 00:00:42;;;;;;;8.15;3.75;;;;;;;14.52;46.66;99976.69;4988841;28;20047;-60
2021/04/06 00:03:13;;;;;;;7.38;3.58;;;;;;;14.52;46.68;99978.47;4973185;28;20055;-59
2021/04/06 00:05:40;;;;;;;5.45;3.20;;;;;;;14.53;46.59;99974.88;4973194;28;20471;-59
2021/04/06 00:08:08;;;;;;;7.43;3.60;;;;;;;14.53;46.65;99969.59;4973210;28;20051;-58
2021/04/06 00:10:41;;;;;;;7.32;3.67;;;;;;;14.52;46.67;99958.19;4973405;28;20054;-59
2021/04/06 00:13:08;;;;;;;6.70;3.72;;;;;;;14.51;46.64;99963.59;4973354;28;20058;-59
2021/04/06 00:15:36;;;;;;;12.48;4.32;;;;;;;14.49;46.59;99947.88;4973299;28;20441;-59
2021/04/06 00:18:05;;;;;;;9.45;3.83;;;;;;;14.49;46.72;99947.06;4973106;28;20058;-59
2021/04/06 00:20:35;;;;;;;9.75;4.10;;;;;;;14.47;46.80;99948.97;4973107;28;20106;-59
2021/04/06 00:23:03;;;;;;;6.82;3.95;;;;;;;14.45;46.77;99949.13;4981081;28;20059;-59
2021/04/06 00:25:32;;;;;;;6.50;4.10;;;;;;;14.44;46.77;99942.16;4992641;28;20046;-59
2021/04/06 00:28:04;;;;;;;9.70;4.32;;;;;;;14.42;46.59;99936.16;4992314;28;20454;-60
2021/04/06 00:30:32;;;;;;;5.60;3.35;;;;;;;14.41;46.64;99929.25;5007515;28;20062;-59
2021/04/06 00:33:04;;;;;;;5.38;3.58;;;;;;;14.42;46.67;99927.44;4991755;28;20047;-59
2021/04/06 00:35:31;;;;;;;8.55;4.22;;;;;;;14.41;46.79;99923.97;4995611;28;20046;-59
2021/04/06 00:37:58;;;;;;;6.75;3.83;;;;;;;14.38;46.84;99924.22;4995895;28;20054;-59
2021/04/06 00:40:27;;;;;;;7.00;4.10;;;;;;;14.37;46.63;99928.66;4995716;28;20557;-59
2021/04/06 00:43:04;;;;;;;7.35;3.42;;;;;;;14.35;46.61;99921.84;4995753;28;20058;-59
2021/04/06 00:45:35;;;;;;;4.93;3.40;;;;;;;14.33;46.54;99918.50;5027254;28;20050;-59
2021/04/06 00:48:04;;;;;;;8.00;3.67;;;;;;;14.31;46.49;99916.00;4996009;28;20050;-59
2021/04/06 00:50:32;;;;;;;6.35;3.50;;;;;;;14.30;46.54;99913.50;4995916;28;20054;-59
2021/04/06 00:52:59;;;;;;;8.15;4.03;;;;;;;14.30;46.30;99922.22;4995748;28;20054;-59
2021/04/06 00:55:37;;;;;;;8.52;4.07;;;;;;;14.29;46.35;99911.81;4995705;28;20054;-60
2021/04/06 00:58:25;;;;;;;6.03;3.75;;;;;;;14.29;46.33;99906.53;4995633;28;20050;-59
2021/04/06 01:01:02;;;;;;;7.97;3.42;;;;;;;14.27;46.26;99908.47;4995544;28;20516;-59
2021/04/06 01:03:28;;;;;;;7.53;3.83;;;;;;;14.26;46.08;99907.63;4995698;28;20105;-59
2021/04/06 01:06:00;;;;;;;7.60;3.10;;;;;;;14.27;46.09;99908.47;4985576;28;20042;-59
2021/04/06 01:08:28;;;;;;;8.10;3.72;;;;;;;14.26;46.11;99901.50;4976140;28;20062;-59
2021/04/06 01:10:55;;;;;;;5.15;3.42;;;;;;;14.24;46.10;99890.25;4975987;28;20523;-60
2021/04/06 01:13:24;;;;;;;5.50;3.55;;;;;;;14.24;46.03;99895.53;4975994;28;20439;-59
2021/04/06 01:15:54;;;;;;;5.07;3.42;;;;;;;14.23;46.04;99883.31;4976125;28;20463;-58
2021/04/06 01:18:22;;;;;;;9.93;3.83;;;;;;;14.19;46.07;99882.72;4975923;28;20047;-59
2021/04/06 01:20:48;;;;;;;8.80;4.43;;;;;;;14.18;46.01;99881.06;4975769;28;20562;-59
2021/04/06 01:23:17;;;;;;;11.73;4.18;;;;;;;14.17;46.02;99882.00;4987985;28;20050;-59
2021/04/06 01:25:50;;;;;;;6.95;3.97;;;;;;;14.15;45.93;99876.06;4995308;28;20105;-59
2021/04/06 01:28:17;;;;;;;6.95;3.70;;;;;;;14.14;45.91;99880.47;4994995;28;20046;-60
2021/04/06 01:30:48;;;;;;;5.22;3.85;;;;;;;14.14;45.88;99872.56;4995211;28;20110;-59
2021/04/06 01:33:17;;;;;;;6.97;4.30;;;;;;;14.11;45.91;99867.56;4995059;28;20053;-59
2021/04/06 01:35:52;;;;;;;6.30;3.75;;;;;;;14.09;45.92;99852.84;4995136;28;20046;-59
2021/04/06 01:38:19;;;;;;;9.48;4.00;;;;;;;14.07;46.02;99846.84;4994847;28;20136;-59
2021/04/06 01:40:46;;;;;;;6.43;3.30;;;;;;;14.04;45.91;99830.31;4994881;28;20508;-59
2021/04/06 01:43:14;;;;;;;7.85;3.83;;;;;;;14.02;45.89;99834.88;4995011;28;20062;-59
2021/04/06 01:45:44;;;;;;;9.13;3.53;;;;;;;14.00;45.96;99825.44;4994402;28;20058;-58
2021/04/06 01:48:15;;;;;;;5.07;3.60;;;;;;;13.98;45.84;99824.72;4994594;28;20058;-59
2021/04/06 01:50:42;;;;;;;8.23;3.78;;;;;;;13.96;45.93;99824.84;4994647;28;20128;-59
2021/04/06 01:53:10;;;;;;;8.95;3.53;;;;;;;13.95;45.96;99819.72;4994499;28;20046;-59
2021/04/06 01:55:39;;;;;;;6.65;3.75;;;;;;;13.94;45.97;99825.97;4984361;28;20050;-59
2021/04/06 01:58:06;;;;;;;5.45;3.58;;;;;;;13.92;46.02;99822.63;4975083;28;20050;-59
2021/04/06 02:01:18;;;;;;;7.97;3.60;;;;;;;13.89;46.23;99818.47;4974970;28;20054;-59
2021/04/06 02:03:27;;;;;;;8.20;3.83;;;;;;;13.86;46.34;99823.97;4977035;28;20047;-59
2021/04/06 02:05:54;;;;;;;5.70;3.75;;;;;;;13.83;46.44;99821.63;4975168;28;20109;-59
2021/04/06 02:08:22;;;;;;;6.05;3.53;;;;;;;13.83;46.54;99822.44;4974777;28;20495;-59
2021/04/06 02:10:50;;;;;;;5.32;3.60;;;;;;;13.84;46.70;99821.47;4974927;28;20042;-59
2021/04/06 02:13:19;;;;;;;5.07;3.88;;;;;;;13.83;46.69;99809.25;4974744;28;20070;-60
2021/04/06 02:16:02;;;;;;;6.88;3.97;;;;;;;13.82;46.75;99804.13;4974704;28;20097;-59
2021/04/06 02:18:30;;;;;;;4.72;3.38;;;;;;;13.83;46.84;99811.91;4974685;28;20047;-59
2021/04/06 02:21:03;;;;;;;7.57;4.50;;;;;;;13.82;47.01;99806.75;4974616;28;20051;-59
2021/04/06 02:23:46;;;;;;;9.57;5.25;;;;;;;13.80;47.10;99798.97;4974421;28;20062;-59
2021/04/06 02:26:14;;;;;;;7.03;4.50;;;;;;;13.78;47.15;99800.91;4974480;28;20098;-59
2021/04/06 02:28:40;;;;;;;6.55;4.30;;;;;;;13.78;47.29;99795.63;4974480;28;20455;-59
2021/04/06 02:31:07;;;;;;;5.32;4.18;;;;;;;13.76;47.44;99788.81;4974531;28;20051;-61
2021/04/06 02:33:36;;;;;;;9.07;4.10;;;;;;;13.76;47.61;99794.09;4974461;28;20055;-59
2021/04/06 02:36:08;;;;;;;5.10;3.83;;;;;;;13.75;47.67;99785.34;4974378;28;20051;-59
2021/04/06 02:38:45;;;;;;;6.18;4.00;;;;;;;13.75;47.67;99789.78;4974349;28;20050;-59
2021/04/06 02:41:18;;;;;;;6.88;3.58;;;;;;;13.74;47.91;99786.31;4988736;28;20504;-60
2021/04/06 02:43:44;;;;;;;5.75;4.07;;;;;;;13.73;48.02;99778.56;4974546;28;20078;-60
2021/04/06 02:46:12;;;;;;;6.68;3.97;;;;;;;13.70;48.15;99785.75;4974268;28;20054;-60
2021/04/06 02:48:48;;;;;;;7.70;4.03;;;;;;;13.69;48.16;99780.59;4974081;28;20058;-59
2021/04/06 02:51:15;;;;;;;10.60;3.72;;;;;;;13.66;48.32;99776.44;4974126;28;20050;-59
2021/04/06 02:53:42;;;;;;;6.68;3.92;;;;;;;13.65;48.56;99766.00;4974107;28;20459;-60
2021/04/06 02:56:09;;;;;;;9.75;4.28;;;;;;;13.65;48.55;99760.72;4973431;28;20101;-59
2021/04/06 02:58:39;;;;;;;7.78;4.10;;;;;;;13.64;48.76;99765.16;4973713;28;20399;-59
2021/04/06 03:01:12;;;;;;;4.70;3.92;;;;;;;13.64;48.79;99766.97;4973765;28;20106;-59
2021/04/06 03:03:39;;;;;;;6.55;3.55;;;;;;;13.63;48.81;99762.66;4982594;28;20054;-58
2021/04/06 03:06:11;;;;;;;10.23;3.65;;;;;;;13.62;48.88;99758.34;4988771;28;20410;-59
2021/04/06 03:08:39;;;;;;;6.95;4.00;;;;;;;13.63;48.79;99765.31;4989991;28;20388;-60
2021/04/06 03:11:11;;;;;;;8.32;4.32;;;;;;;13.63;48.80;99763.50;4989844;28;20046;-60
2021/04/06 03:13:40;;;;;;;7.28;3.72;;;;;;;13.62;48.74;99758.34;4978486;28;20050;-59
2021/04/06 03:16:08;;;;;;;5.18;3.60;;;;;;;13.60;48.81;99761.13;4970367;28;20043;-60
2021/04/06 03:18:40;;;;;;;8.10;4.10;;;;;;;13.58;48.79;99762.22;4970252;28;20121;-59
2021/04/06 03:21:09;;;;;;;7.93;3.78;;;;;;;13.57;48.89;99766.66;4969907;28;20119;-60
2021/04/06 03:23:36;;;;;;;7.70;4.25;;;;;;;13.56;48.93;99762.38;4970186;28;20046;-63
2021/04/06 03:26:05;;;;;;;7.53;4.18;;;;;;;13.56;49.00;99762.38;4970407;28;20057;-64
2021/04/06 03:28:34;;;;;;;7.47;3.85;;;;;;;13.57;48.88;99763.19;4970497;28;20081;-59
2021/04/06 03:31:06;;;;;;;6.70;4.03;;;;;;;13.56;48.92;99751.81;4970231;28;20046;-58
2021/04/06 03:33:33;;;;;;;8.25;4.07;;;;;;;13.55;48.88;99756.25;4970167;28;20487;-59
2021/04/06 03:35:59;;;;;;;10.25;4.10;;;;;;;13.54;48.95;99749.28;4970374;28;20082;-60
2021/04/06 03:38:26;;;;;;;5.80;3.88;;;;;;;13.55;48.82;99747.50;4970223;28;20043;-60
2021/04/06 03:40:52;;;;;;;8.23;3.67;;;;;;;13.55;48.86;99756.25;4970177;28;20051;-60
2021/04/06 03:43:20;;;;;;;6.03;3.63;;;;;;;13.54;48.90;99751.94;4970398;28;20050;-59
2021/04/06 03:46:04;;;;;;;5.07;3.38;;;;;;;13.54;48.95;99753.75;4970340;28;20411;-59
2021/04/06 03:48:35;;;;;;;7.93;4.10;;;;;;;13.54;48.87;99757.19;4970274;28;20050;-59
2021/04/06 03:51:04;;;;;;;8.95;4.20;;;;;;;13.52;48.91;99756.53;4970086;28;20423;-59
2021/04/06 03:53:41;;;;;;;6.97;3.15;;;;;;;13.48;48.89;99744.53;4970232;28;20101;-64
2021/04/06 03:56:12;;;;;;;8.00;3.55;;;;;;;13.48;48.96;99741.91;4970075;28;20467;-59
2021/04/06 03:58:43;;;;;;;7.25;3.22;;;;;;;13.47;48.79;99735.00;4970101;28;20047;-59
2021/04/06 04:01:13;;;;;;;4.38;3.22;;;;;;;13.46;48.83;99735.94;4969900;28;20050;-60
2021/04/06 04:03:40;;;;;;;4.43;2.88;;;;;;;13.44;48.73;99732.59;4970118;28;20043;-59
2021/04/06 04:06:07;;;;;;;5.93;3.28;;;;;;;13.44;48.85;99734.41;4969996;28;20050;-60
2021/04/06 04:08:34;;;;;;;5.78;3.03;;;;;;;13.45;48.92;99728.19;4972029;28;20171;-60
2021/04/06 04:11:00;;;;;;;6.50;3.03;;;;;;;13.44;48.89;99724.69;4974051;28;20054;-60
2021/04/06 04:13:26;;;;;;;4.28;3.22;;;;;;;13.44;48.82;99723.88;4973627;28;20047;-63
2021/04/06 04:15:52;;;;;;;5.03;3.17;;;;;;;13.44;48.96;99735.22;4973786;28;20097;-59
2021/04/06 04:18:19;;;;;;;7.20;3.00;;;;;;;13.45;48.77;99736.91;4974078;28;20059;-62
2021/04/06 04:20:45;;;;;;;9.70;3.20;;;;;;;13.45;48.94;99736.09;4973398;28;20090;-59
2021/04/06 04:23:11;;;;;;;5.40;3.47;;;;;;;13.44;48.90;99737.06;4973370;28;20129;-59
2021/04/06 04:25:37;;;;;;;6.28;3.08;;;;;;;13.44;48.79;99735.22;4973590;28;20062;-59
2021/04/06 04:28:04;;;;;;;7.50;3.35;;;;;;;13.45;48.86;99747.44;4973568;28;20542;-59
2021/04/06 04:30:38;;;;;;;7.82;3.22;;;;;;;13.44;48.85;99743.13;4973581;28;20051;-62
2021/04/06 04:33:06;;;;;;;4.78;3.28;;;;;;;13.45;48.86;99749.25;4973488;28;20050;-59
2021/04/06 04:35:34;;;;;;;8.85;3.20;;;;;;;13.44;48.93;99750.22;4973421;28;20106;-59
2021/04/06 04:38:01;;;;;;;5.47;3.38;;;;;;;13.43;48.95;99751.19;4973346;28;20047;-59
2021/04/06 04:40:27;;;;;;;6.18;2.97;;;;;;;13.41;49.01;99748.69;4973242;28;20346;-59
2021/04/06 04:42:54;;;;;;;4.85;2.78;;;;;;;13.41;49.10;99750.47;4973350;28;20129;-59
2021/04/06 04:45:21;;;;;;;6.60;3.20;;;;;;;13.39;49.02;99761.16;4973621;28;20047;-60
2021/04/06 04:47:48;;;;;;;4.90;3.15;;;;;;;13.38;49.11;99760.31;4973445;28;20097;-59
2021/04/06 04:50:17;;;;;;;4.38;2.75;;;;;;;13.37;49.15;99763.91;4973309;28;20055;-59
2021/04/06 04:52:47;;;;;;;4.88;3.25;;;;;;;13.38;49.22;99756.84;5004204;28;20059;-59
2021/04/06 04:55:15;;;;;;;5.63;2.90;;;;;;;13.38;49.41;99773.50;4972996;28;20069;-59
2021/04/06 04:57:42;;;;;;;5.50;3.20;;;;;;;13.38;49.44;99770.88;4973126;28;20065;-59
2021/04/06 05:00:10;;;;;;;3.30;3.00;;;;;;;13.37;49.54;99771.81;4972769;28;20117;-60
2021/04/06 05:02:36;;;;;;;5.57;3.08;;;;;;;13.39;49.58;99774.31;4972940;28;20473;-61
2021/04/06 05:05:04;;;;;;;5.80;3.13;;;;;;;13.39;49.35;99775.19;4972810;28;20074;-60
2021/04/06 05:07:30;;;;;;;10.25;3.17;;;;;;;13.40;49.54;99776.00;4972954;28;20081;-60
2021/04/06 05:09:57;;;;;;;6.35;3.17;;;;;;;13.41;49.55;99776.81;4972822;28;20043;-60
2021/04/06 05:12:23;;;;;;;8.85;3.60;;;;;;;13.41;49.39;99782.09;4972438;28;20105;-59
2021/04/06 05:14:50;;;;;;;5.60;3.08;;;;;;;13.41;49.78;99787.34;4972819;28;20043;-60
2021/04/06 05:17:17;;;;;;;6.07;2.90;;;;;;;13.42;49.64;99792.53;4982171;28;20104;-63
2021/04/06 05:19:44;;;;;;;6.13;2.92;;;;;;;13.41;49.75;99784.72;4991317;28;20097;-59
2021/04/06 05:22:16;;;;;;;8.07;2.97;;;;;;;13.38;49.53;99789.31;4984790;28;20055;-61
2021/04/06 05:24:44;;;;;;;7.60;2.63;;;;;;;13.39;49.73;99791.00;4972115;28;20043;-61
2021/04/06 05:27:10;;;;;;;6.45;3.03;;;;;;;13.38;49.81;99789.31;4972375;28;20055;-62
2021/04/06 05:29:37;;;;;;;11.52;4.00;;;;;;;13.39;49.80;99792.75;4972550;28;20054;-60
2021/04/06 05:32:03;;;;;;;7.85;2.60;;;;;;;13.40;49.85;99794.44;4972348;28;20053;-64
2021/04/06 05:34:29;;;;;;;8.02;3.22;;;;;;;13.44;49.90;99801.13;4972323;28;20110;-60
2021/04/06 05:36:55;;;;;;;9.98;3.35;;;;;;;13.43;49.90;99791.53;4971851;28;20046;-60
2021/04/06 05:39:22;;;;;;;8.02;2.90;;;;;;;13.46;49.97;99798.34;4972210;28;20109;-63
2021/04/06 05:41:49;;;;;;;7.07;3.30;;;;;;;13.47;50.09;99802.66;4972129;28;20055;-59
2021/04/06 05:44:17;;;;;;;6.15;3.10;;;;;;;13.47;50.08;99806.16;4972242;28;20484;-71
2021/04/06 05:46:46;;;;;;;9.32;3.30;;;;;;;13.48;50.17;99799.88;4982134;28;20046;-63
2021/04/06 05:49:21;;;;;;;6.78;2.97;;;;;;;13.49;50.17;99798.94;4990778;28;20574;-61
2021/04/06 05:51:47;;;;;;;9.57;3.40;;;;;;;13.49;50.14;99796.28;4991237;28;20046;-61
2021/04/06 05:54:15;;;;;;;8.95;3.22;;;;;;;13.49;50.32;99798.09;4989333;28;20093;-60
2021/04/06 05:56:42;;;;;;;9.65;3.88;;;;;;;13.48;50.39;99799.88;4990695;28;20557;-62
2021/04/06 05:59:09;;;;;;;9.40;3.20;;;;;;;13.47;50.33;99800.03;4990772;28;20495;-64
2021/04/06 06:01:41;;;;;;;8.77;3.20;;;;;;;13.45;50.43;99800.16;4990567;28;20104;-61
2021/04/06 06:04:09;;;;;;;8.35;3.03;;;;;;;13.46;50.54;99798.34;4990262;28;20549;-62
2021/04/06 06:06:36;;;;;;;6.57;3.05;;;;;;;13.45;50.60;99805.44;4988430;28;20050;-61
2021/04/06 06:09:04;;;;;;;8.35;2.95;;;;;;;13.47;50.59;99806.16;4986645;28;20189;-61
2021/04/06 06:11:32;;;;;;;6.97;3.05;;;;;;;13.49;50.82;99812.09;4985716;28;20075;-60
2021/04/06 06:13:59;;;;;;;5.90;3.20;;;;;;;13.51;50.81;99809.34;4989057;28;20133;-60
2021/04/06 06:16:31;;;;;;;7.38;3.40;;;;;;;13.49;50.83;99808.66;4990428;28;20050;-59
2021/04/06 06:19:01;;;;;;;9.20;3.28;;;;;;;13.48;51.09;99813.06;4990396;28;20050;-59
2021/04/06 06:21:52;;;;;;;8.88;3.33;;;;;;;13.48;51.20;99814.88;4990182;28;20050;-59
2021/04/06 06:24:27;;;;;;;10.50;3.42;;;;;;;13.48;51.22;99822.78;4976543;28;20516;-62
2021/04/06 06:26:58;;;;;;;6.05;3.30;;;;;;;13.46;51.35;99822.06;4971232;28;20128;-66
2021/04/06 06:29:40;;;;;;;6.80;3.03;;;;;;;13.44;51.53;99821.38;4971084;28;20098;-59
2021/04/06 06:32:19;;;;;;;4.75;3.22;;;;;;;13.43;51.99;99824.97;4969712;28;20042;-59
2021/04/06 06:34:46;;;;;;;6.05;3.30;;;;;;;13.39;52.43;99819.13;4971126;28;20050;-59
2021/04/06 06:37:17;;;;;;;8.38;3.47;;;;;;;13.35;52.85;99830.84;4969694;28;20391;-61
2021/04/06 06:39:52;;;;;;;9.50;4.13;;;;;;;13.33;53.31;99827.50;4989452;28;20050;-59
2021/04/06 06:42:21;;;;;;;6.25;3.17;;;;;;;13.32;53.89;99824.03;4987735;28;20046;-59
2021/04/06 06:44:48;;;;;;;7.13;3.20;;;;;;;13.34;54.25;99827.38;4989714;28;20469;-59
2021/04/06 06:47:17;;;;;;;10.05;4.38;;;;;;;13.36;54.54;99824.63;4988813;28;20458;-59
2021/04/06 06:49:44;;;;;;;9.25;3.33;;;;;;;13.39;54.69;99825.25;4989222;28;20129;-61
2021/04/06 06:52:20;;;;;;;6.93;3.83;;;;;;;13.43;54.73;99819.69;4989970;28;20046;-60
2021/04/06 06:54:46;;;;;;;8.00;3.08;;;;;;;13.44;54.82;99809.03;4989951;28;20058;-62
2021/04/06 06:57:15;;;;;;;7.82;4.47;;;;;;;13.47;55.09;99816.69;4989603;28;20053;-60
2021/04/06 06:59:45;;;;;;;5.63;3.40;;;;;;;13.46;55.30;99812.38;4989904;28;20057;-59
2021/04/06 07:02:29;;;;;;;6.68;3.30;;;;;;;13.48;55.23;99822.78;4989491;28;20054;-58
2021/04/06 07:05:22;;;;;;;6.55;3.42;;;;;;;13.47;55.53;99832.50;4981600;28;20051;-59
2021/04/06 07:08:03;;;;;;;6.22;3.30;;;;;;;13.44;55.52;99835.38;4970190;28;20105;-59
2021/04/06 07:10:38;;;;;;;5.97;4.07;;;;;;;13.41;55.54;99848.81;4970057;28;20055;-59
2021/04/06 07:13:06;;;;;;;9.75;3.65;;;;;;;13.37;55.53;99850.06;4969710;28;20781;-59
2021/04/06 07:15:37;;;;;;;8.15;3.88;;;;;;;13.35;55.68;99865.94;4970307;28;20057;-59
2021/04/06 07:18:10;;;;;;;5.68;3.60;;;;;;;13.33;56.46;99859.97;4970201;28;20051;-59
2021/04/06 07:20:39;;;;;;;7.60;4.00;;;;;;;13.33;56.97;99861.75;4969871;28;20047;-59
2021/04/06 07:23:10;;;;;;;7.43;3.65;;;;;;;13.35;57.43;99857.22;4969570;28;20527;-60
2021/04/06 07:25:37;;;;;;;6.72;3.80;;;;;;;13.39;57.69;99858.66;4970365;28;20126;-59
2021/04/06 07:28:04;;;;;;;7.22;3.60;;;;;;;13.42;57.65;99855.78;4970062;28;20567;-60
2021/04/06 07:30:31;;;;;;;7.00;4.20;;;;;;;13.48;57.78;99851.78;4975791;28;20050;-60
2021/04/06 07:32:58;;;;;;;7.93;4.00;;;;;;;13.52;57.78;99842.66;4988297;28;20046;-59
2021/04/06 07:35:25;;;;;;;9.38;4.40;;;;;;;13.54;57.90;99846.81;4983725;28;20050;-59
2021/04/06 07:37:51;;;;;;;5.78;4.00;;;;;;;13.57;57.84;99844.91;4988684;28;20046;-59
2021/04/06 07:40:21;;;;;;;7.40;4.50;;;;;;;13.57;57.61;99850.19;4989054;28;20158;-61
2021/04/06 07:42:47;;;;;;;5.20;4.07;;;;;;;13.54;57.41;99857.38;4988551;28;20525;-59
2021/04/06 07:45:23;;;;;;;8.43;4.13;;;;;;;13.51;57.26;99865.53;4988776;28;20053;-59
2021/04/06 07:47:54;;;;;;;6.63;4.38;;;;;;;13.48;57.10;99852.59;4987168;28;20046;-59
2021/04/06 07:50:41;;;;;;;7.30;4.53;;;;;;;13.48;57.14;99851.78;4988833;28;20101;-59
2021/04/06 07:53:21;;;;;;;6.03;4.32;;;;;;;13.49;57.13;99853.47;4970328;28;20058;-59
2021/04/06 07:55:47;;;;;;;7.78;4.50;;;;;;;13.48;57.10;99851.78;4970069;28;20047;-60
2021/04/06 07:58:44;;;;;;;8.63;4.10;;;;;;;13.46;56.87;99848.41;4969762;28;20451;-59
2021/04/06 08:01:11;;;;;;;7.15;3.90;;;;;;;13.44;56.83;99861.72;4971623;28;20093;-61
2021/04/06 08:03:49;;;;;;;5.97;4.43;;;;;;;13.43;56.74;99852.16;4986002;28;20104;-59
2021/04/06 08:06:39;;;;;;;7.20;3.95;;;;;;;13.43;56.31;99856.59;4988852;28;20042;-59
2021/04/06 08:09:27;;;;;;;5.55;3.05;;;;;;;13.43;55.93;99864.50;4988814;28;20458;-60
2021/04/06 08:12:08;;;;;;;6.10;2.90;;;;;;;13.39;55.45;99864.78;4988936;28;20117;-60
2021/04/06 08:14:37;;;;;;;5.13;3.15;;;;;;;13.35;55.26;99865.94;4989298;28;20490;-59
2021/04/06 08:17:21;;;;;;;4.25;3.00;;;;;;;13.35;54.97;99881.75;4988979;28;20054;-67
2021/04/06 08:19:59;;;;;;;5.78;2.90;;;;;;;13.31;54.67;99882.13;4988797;28;20646;-60
2021/04/06 08:22:26;;;;;;;7.38;3.38;;;;;;;13.31;54.47;99895.31;4986581;28;20430;-65
2021/04/06 08:25:19;;;;;;;7.88;3.00;;;;;;;13.28;54.34;99893.78;4968907;28;20469;-59
2021/04/06 08:27:50;;;;;;;5.00;2.95;;;;;;;13.29;54.20;99894.59;4969576;28;20499;-61
2021/04/06 08:30:19;;;;;;;5.30;2.97;;;;;;;13.27;54.02;99897.34;4986311;28;20102;-59
2021/04/06 08:32:57;;;;;;;4.80;3.10;;;;;;;13.28;53.73;99896.41;4987251;28;20599;-60
2021/04/06 08:38:23;;;;;;;3.78;2.90;;;;;;;13.30;52.89;99901.53;4983752;28;20097;-64
2021/04/06 08:40:54;;;;;;;14.02;3.28;;;;;;;13.50;53.90;99907.84;4969127;28;20047;-61
2021/04/06 08:43:22;;;;;;;8.00;3.53;;;;;;;13.70;53.48;99908.84;4969625;28;20055;-70
2021/04/06 08:45:55;;;;;;;10.75;2.92;;;;;;;13.73;52.04;99915.66;4969405;28;20641;-65
2021/04/06 08:48:43;;;;;;;6.57;2.65;;;;;;;13.69;51.76;99915.06;4968378;28;20518;-59
2021/04/06 08:51:23;;;;;;;5.88;2.90;;;;;;;13.65;51.98;99921.53;4969293;28;20055;-62
2021/04/06 08:53:52;;;;;;;6.45;3.65;;;;;;;13.61;52.10;99920.13;4969662;28;20055;-61
2021/04/06 08:56:23;;;;;;;6.25;3.40;;;;;;;13.59;52.42;99925.53;4971773;28;20055;-63
2021/04/06 08:58:50;;;;;;;8.23;3.10;;;;;;;13.58;52.66;99925.66;4972502;28;20455;-59
2021/04/06 09:01:18;;;;;;;4.97;3.20;;;;;;;13.55;52.77;99939.94;4972471;28;20109;-60
2021/04/06 09:03:44;;;;;;;8.98;3.50;;;;;;;13.53;52.95;99934.78;4974063;28;20074;-59
2021/04/06 09:06:15;;;;;;;9.95;3.53;;;;;;;13.53;52.99;99937.44;4982693;28;20042;-64
2021/04/06 09:08:55;;;;;;;6.20;3.78;;;;;;;13.55;53.03;99932.84;4973465;28;20073;-63
2021/04/06 09:11:23;;;;;;;7.85;3.80;;;;;;;13.61;53.39;99935.94;4972969;28;20047;-67
2021/04/06 09:13:52;;;;;;;4.80;3.33;;;;;;;13.62;53.27;99946.34;4973518;28;20487;-73
2021/04/06 09:16:26;;;;;;;5.05;3.80;;;;;;;13.63;53.23;99939.31;4975029;28;20042;-60
2021/04/06 09:19:14;;;;;;;7.53;4.15;;;;;;;13.67;53.15;99946.81;4991630;28;20116;-60
2021/04/06 09:21:44;;;;;;;6.88;4.13;;;;;;;13.72;53.14;99941.16;4974845;28;20063;-59
2021/04/06 09:24:12;;;;;;;5.97;4.10;;;;;;;13.77;53.13;99946.06;4982526;28;20042;-59
2021/04/06 09:26:39;;;;;;;7.95;4.35;;;;;;;13.82;52.88;99946.53;4977312;28;20495;-59
2021/04/06 09:29:05;;;;;;;4.93;3.80;;;;;;;13.87;53.25;99949.59;4991120;28;20784;-66
2021/04/06 09:31:33;;;;;;;8.80;4.50;;;;;;;13.90;52.99;99949.34;4978907;28;20050;-59
2021/04/06 09:34:10;;;;;;;6.65;4.07;;;;;;;13.93;52.95;99950.88;4973983;28;20058;-59
2021/04/06 09:36:39;;;;;;;6.55;4.03;;;;;;;13.93;52.74;99954.38;4977407;28;20042;-58
2021/04/06 09:39:08;;;;;;;8.57;4.65;;;;;;;13.92;52.75;99952.69;4978576;28;20050;-62
2021/04/06 09:41:36;;;;;;;10.85;4.97;;;;;;;13.88;52.66;99959.19;4972511;28;20121;-59
2021/04/06 09:44:05;;;;;;;7.65;4.85;;;;;;;13.85;52.49;99962.06;4990413;28;20561;-65
2021/04/06 09:46:37;;;;;;;8.45;4.20;;;;;;;13.82;52.21;99964.97;4990917;28;20096;-59
2021/04/06 09:49:04;;;;;;;9.88;4.53;;;;;;;13.77;52.06;99968.00;4990303;28;20050;-60
2021/04/06 09:51:31;;;;;;;7.40;3.90;;;;;;;13.74;51.93;99977.94;4990885;28;20085;-59
2021/04/06 09:53:58;;;;;;;6.47;3.65;;;;;;;13.70;51.53;99982.66;4990671;28;20093;-63
2021/04/06 09:56:24;;;;;;;6.35;4.10;;;;;;;13.67;51.28;99980.25;4990710;28;20458;-60
2021/04/06 09:58:52;;;;;;;5.00;3.08;;;;;;;13.65;51.10;99982.16;4990726;28;20466;-59
2021/04/06 10:01:24;;;;;;;6.18;3.10;;;;;;;13.62;50.71;99985.06;4990702;28;20578;-58
2021/04/06 10:03:58;;;;;;;4.00;3.17;;;;;;;13.59;50.13;99986.16;4990460;28;20054;-58
2021/04/06 10:06:40;;;;;;;7.63;3.40;;;;;;;13.58;49.79;99991.56;4990283;28;20100;-58
2021/04/06 10:09:20;;;;;;;4.20;2.42;;;;;;;13.57;49.39;100001.25;4986880;28;20054;-59
2021/04/06 10:11:48;;;;;;;6.35;3.22;;;;;;;13.57;49.06;100008.34;4986848;28;20046;-59
2021/04/06 10:14:15;;;;;;;5.72;2.92;;;;;;;13.53;49.69;100013.00;4971950;28;20054;-63
2021/04/06 10:16:42;;;;;;;7.55;2.53;;;;;;;13.50;50.59;100015.91;4972589;28;20117;-59
2021/04/06 10:19:20;;;;;;;7.22;2.08;;;;;;;13.51;50.92;100028.09;4971490;28;20046;-58
2021/04/06 10:22:00;;;;;;;3.80;1.38;;;;;;;13.44;50.53;100030.41;4970958;28;20105;-59
2021/04/06 10:24:28;;;;;;;4.82;1.15;;;;;;;13.39;49.86;100040.47;4971434;28;20039;-59
2021/04/06 10:27:15;;;;;;;6.30;1.33;;;;;;;13.36;49.36;100036.25;4973196;28;20096;-60
2021/04/06 10:29:42;;;;;;;2.80;0.70;;;;;;;13.36;48.62;100052.06;4969899;28;20050;-61
2021/04/06 10:32:29;;;;;;;1.98;0.75;;;;;;;13.37;48.02;100060.88;4971817;28;20102;-59
2021/04/06 10:34:59;;;;;;;1.27;0.70;;;;;;;13.36;47.69;100070.53;4973939;28;20088;-58
2021/04/06 10:37:36;;;;;;;1.73;0.60;;;;;;;13.34;47.42;100082.97;4971679;28;20498;-58
2021/04/06 10:40:19;;;;;;;1.23;0.70;;;;;;;13.32;46.96;100089.31;4972616;28;20049;-59
2021/04/06 10:42:48;;;;;;;2.17;1.17;;;;;;;13.33;47.01;100094.50;4970883;28;20046;-58
2021/04/06 10:45:15;;;;;;;3.10;0.57;;;;;;;13.32;46.77;100099.84;4971302;28;20568;-58
2021/04/06 10:47:41;;;;;;;6.00;0.95;;;;;;;13.28;46.67;100101.94;4970124;28;20051;-58
2021/04/06 10:50:07;;;;;;;2.55;0.80;;;;;;;13.24;46.37;100103.09;4971506;28;20046;-58
2021/04/06 10:52:34;;;;;;;4.60;0.70;;;;;;;13.23;46.31;100091.72;4971713;28;20487;-58
2021/04/06 10:55:05;;;;;;;1.60;0.52;;;;;;;13.25;45.67;100104.78;4973038;28;20456;-59
2021/04/06 10:57:38;;;;;;;3.40;0.65;;;;;;;13.25;45.28;100107.41;4973741;28;20047;-58
2021/04/06 11:00:16;;;;;;;4.07;0.70;;;;;;;13.27;44.86;100107.28;4970819;28;20050;-69
2021/04/06 11:02:44;;;;;;;1.52;0.70;;;;;;;13.43;44.50;100122.78;4970072;28;20051;-59
2021/04/06 11:05:10;;;;;;;2.42;0.73;;;;;;;13.53;44.53;100119.31;4969328;28;20055;-58
2021/04/06 11:07:37;;;;;;;3.63;0.80;;;;;;;13.59;44.54;100128.50;5000692;28;20050;-67
2021/04/06 11:10:08;;;;;;;2.80;0.70;;;;;;;13.73;44.48;100131.88;4971263;28;20039;-59
2021/04/06 11:12:35;;;;;;;3.53;0.73;;;;;;;13.71;44.13;100138.09;4972516;28;20105;-59
2021/04/06 11:15:01;;;;;;;4.47;0.60;;;;;;;14.30;43.38;100137.81;4968481;28;20042;-58
2021/04/06 11:17:27;;;;;;;1.48;1.00;;;;;;;14.79;42.74;100139.06;4969987;28;20051;-58
2021/04/06 11:19:57;;;;;;;3.90;1.00;;;;;;;15.05;42.41;100143.09;4973537;28;20570;-58
2021/04/06 11:22:23;;;;;;;4.75;0.77;;;;;;;15.52;41.89;100132.84;4971187;28;20137;-58
2021/04/06 11:24:52;;;;;;;6.57;1.10;;;;;;;15.90;41.38;100131.31;4988392;28;20051;-59
2021/04/06 11:27:19;;;;;;;6.22;1.02;;;;;;;16.30;41.12;100140.13;4984977;28;20570;-61
2021/04/06 11:29:47;;;;;;;5.90;0.88;;;;;;;16.27;40.62;100145.69;4974196;28;20392;-59
2021/04/06 11:32:17;;;;;;;3.20;0.75;;;;;;;15.96;40.32;100154.59;4989016;28;20042;-59
2021/04/06 11:34:44;;;;;;;3.10;0.80;;;;;;;15.70;40.00;100156.03;4989076;28;20042;-59
2021/04/06 11:37:12;;;;;;;7.78;1.15;;;;;;;15.43;39.49;100165.41;4989044;28;20419;-60
2021/04/06 11:39:41;;;;;;;5.22;0.68;;;;;;;15.17;39.42;100168.44;4983865;28;20043;-59
2021/04/06 11:42:09;;;;;;;5.95;0.75;;;;;;;15.12;39.45;100181.22;4988145;28;20058;-65
2021/04/06 11:44:36;;;;;;;3.90;0.80;;;;;;;14.99;39.63;100178.78;4989032;28;20071;-63
2021/04/06 11:47:02;;;;;;;2.85;0.60;;;;;;;15.09;39.40;100186.78;4988543;28;20092;-67
2021/04/06 11:49:29;;;;;;;4.63;0.80;;;;;;;15.05;39.81;100191.47;4988112;28;20046;-66